createdAt,value
2019-02-07T00:00:51.436Z,30.93
2019-02-07T00:03:20.782Z,27.63
2019-02-07T00:05:49.842Z,36.47
2019-02-07T00:08:19.370Z,41.00
2019-02-07T00:10:48.356Z,26.77
2019-02-07T00:13:17.260Z,35.50
2019-02-07T00:15:46.173Z,29.57
2019-02-07T00:18:15.140Z,32.03
2019-02-07T00:20:45.012Z,25.97
2019-02-07T00:23:14.188Z,31.93
2019-02-07T00:25:43.525Z,28.33
2019-02-07T00:28:12.424Z,31.27
2019-02-07T00:30:41.424Z,36.33
2019-02-07T00:33:10.311Z,39.50
2019-02-07T00:35:39.224Z,25.60
2019-02-07T00:38:08.500Z,28.40
2019-02-07T00:40:37.856Z,30.60
2019-02-07T00:43:06.758Z,26.10
2019-02-07T00:45:35.728Z,31.33
2019-02-07T00:48:04.924Z,37.53
2019-02-07T00:50:33.904Z,25.90
2019-02-07T00:53:02.886Z,29.47
2019-02-07T00:55:31.796Z,27.50
2019-02-07T00:58:00.764Z,29.37
2019-02-07T01:00:29.788Z,28.97
2019-02-07T01:02:58.696Z,31.37
2019-02-07T01:05:27.677Z,24.90
2019-02-07T01:07:56.588Z,27.63
2019-02-07T01:10:25.940Z,25.17
2019-02-07T01:12:55.230Z,27.03
2019-02-07T01:15:24.996Z,23.27
2019-02-07T01:17:54.077Z,20.60
2019-02-07T01:20:23.069Z,32.23
2019-02-07T01:22:52.049Z,21.37
2019-02-07T01:25:21.904Z,32.70
2019-02-07T01:27:51.392Z,30.30
2019-02-07T01:30:21.409Z,31.20
2019-02-07T01:32:50.385Z,21.43
2019-02-07T01:35:19.366Z,22.50
2019-02-07T01:37:48.418Z,25.20
2019-02-07T01:40:18.187Z,26.93
2019-02-07T01:42:47.291Z,23.93
2019-02-07T01:45:18.591Z,28.77
2019-02-07T01:47:48.087Z,21.37
2019-02-07T01:50:19.268Z,19.90
2019-02-07T01:52:48.932Z,18.70
2019-02-07T01:55:17.903Z,30.50
2019-02-07T01:57:46.831Z,21.23
2019-02-07T02:00:17.537Z,22.37
2019-02-07T02:02:46.671Z,29.87
2019-02-07T02:05:16.824Z,30.63
2019-02-07T02:07:46.588Z,29.40
2019-02-07T02:10:17.984Z,27.77
2019-02-07T02:12:46.962Z,25.40
2019-02-07T02:15:24.654Z,25.50
2019-02-07T02:17:50.009Z,23.83
2019-02-07T02:20:19.785Z,27.63
2019-02-07T02:22:48.768Z,22.80
2019-02-07T02:25:17.828Z,22.10
2019-02-07T02:27:46.903Z,23.90
2019-02-07T02:30:18.743Z,22.83
2019-02-07T02:32:47.732Z,20.57
2019-02-07T02:35:16.722Z,23.63
2019-02-07T02:37:46.018Z,19.83
2019-02-07T02:40:15.005Z,24.57
2019-02-07T02:42:44.000Z,19.40
2019-02-07T02:45:14.212Z,27.17
2019-02-07T02:47:43.293Z,22.87
2019-02-07T02:50:14.553Z,22.30
2019-02-07T02:52:43.675Z,25.33
2019-02-07T02:55:16.520Z,32.67
2019-02-07T02:57:45.498Z,19.93
2019-02-07T03:00:17.508Z,28.37
2019-02-07T03:03:04.230Z,24.93
2019-02-07T03:05:55.374Z,28.53
2019-02-07T03:08:49.568Z,25.20
2019-02-07T03:11:36.624Z,29.50
2019-02-07T03:14:25.334Z,21.97
2019-02-07T03:17:19.288Z,24.43
2019-02-07T03:19:55.041Z,33.33
2019-02-07T03:22:43.465Z,22.83
2019-02-07T03:25:30.118Z,22.37
2019-02-07T03:28:30.546Z,29.23
2019-02-07T03:31:10.687Z,29.77
2019-02-07T03:33:57.680Z,26.50
2019-02-07T03:36:51.729Z,30.07
2019-02-07T03:39:32.850Z,25.87
2019-02-07T03:42:30.102Z,28.50
2019-02-07T03:45:11.585Z,27.77
2019-02-07T03:48:03.019Z,30.73
2019-02-07T03:50:44.286Z,25.33
2019-02-07T03:53:31.117Z,23.67
2019-02-07T03:56:31.935Z,26.90
2019-02-07T03:59:13.948Z,21.47
2019-02-07T04:01:54.596Z,23.37
2019-02-07T04:04:34.332Z,23.80
2019-02-07T04:07:12.234Z,34.17
2019-02-07T04:09:57.934Z,24.00
2019-02-07T04:12:54.786Z,21.70
2019-02-07T04:15:48.881Z,24.97
2019-02-07T04:18:39.736Z,30.20
2019-02-07T04:21:20.005Z,27.03
2019-02-07T04:24:17.896Z,26.97
2019-02-07T04:27:10.296Z,21.30
2019-02-07T04:30:16.561Z,28.60
2019-02-07T04:33:03.042Z,24.80
2019-02-07T04:35:49.715Z,34.53
2019-02-07T04:38:38.789Z,27.97
2019-02-07T04:41:17.278Z,27.90
2019-02-07T04:44:04.186Z,29.80
2019-02-07T04:46:57.758Z,33.30
2019-02-07T04:49:44.615Z,28.77
2019-02-07T04:52:31.737Z,33.93
2019-02-07T04:55:18.906Z,27.77
2019-02-07T04:57:58.434Z,31.80
2019-02-07T05:00:42.074Z,31.33
2019-02-07T05:03:29.065Z,30.23
2019-02-07T05:06:06.590Z,29.77
2019-02-07T05:08:45.975Z,34.77
2019-02-07T05:11:33.509Z,31.80
2019-02-07T05:14:24.137Z,41.97
2019-02-07T05:17:12.124Z,36.37
2019-02-07T05:19:59.925Z,36.93
2019-02-07T05:22:39.358Z,40.80
2019-02-07T05:25:27.282Z,43.80
2019-02-07T05:28:21.720Z,40.27
2019-02-07T05:31:15.841Z,37.60
2019-02-07T05:34:01.126Z,36.90
2019-02-07T05:36:43.752Z,40.80
2019-02-07T05:39:21.754Z,36.80
2019-02-07T05:42:02.816Z,42.90
2019-02-07T05:44:39.389Z,41.60
2019-02-07T05:47:30.734Z,46.20
2019-02-07T05:50:14.747Z,44.23
2019-02-07T05:53:03.061Z,59.47
2019-02-07T05:55:50.137Z,40.60
2019-02-07T05:58:53.625Z,49.60
2019-02-07T06:01:40.400Z,33.43
2019-02-07T06:04:28.463Z,39.90
2019-02-07T06:07:05.673Z,42.23
2019-02-07T06:09:56.761Z,46.87
2019-02-07T06:13:00.463Z,39.90
2019-02-07T06:15:43.905Z,42.73
2019-02-07T06:18:28.571Z,38.57
2019-02-07T06:21:16.470Z,50.50
2019-02-07T06:24:07.908Z,40.83
2019-02-07T06:26:56.651Z,46.40
2019-02-07T06:29:44.625Z,45.70
2019-02-07T06:32:35.734Z,41.47
2019-02-07T06:35:21.222Z,53.37
2019-02-07T06:38:07.673Z,48.13
2019-02-07T06:40:50.772Z,54.17
2019-02-07T06:43:51.426Z,47.83
2019-02-07T06:46:38.062Z,45.13
2019-02-07T06:49:31.318Z,39.17
2019-02-07T06:52:11.374Z,31.83
2019-02-07T06:55:10.257Z,26.13
2019-02-07T06:57:57.052Z,24.67
2019-02-07T07:00:48.591Z,26.17
2019-02-07T07:03:36.412Z,35.23
2019-02-07T07:06:31.206Z,32.33
2019-02-07T07:09:19.886Z,28.10
2019-02-07T07:12:07.785Z,32.50
2019-02-07T07:14:54.661Z,38.87
2019-02-07T07:17:34.873Z,31.20
2019-02-07T07:20:22.810Z,25.47
2019-02-07T07:23:23.122Z,33.03
2019-02-07T07:26:17.124Z,32.40
2019-02-07T07:29:04.650Z,33.03
2019-02-07T07:31:58.958Z,30.73
2019-02-07T07:34:46.013Z,39.03
2019-02-07T07:37:33.065Z,34.90
2019-02-07T07:40:24.148Z,38.23
2019-02-07T07:43:21.413Z,34.70
2019-02-07T07:46:18.511Z,32.53
2019-02-07T07:49:00.478Z,34.07
2019-02-07T07:51:51.565Z,40.50
2019-02-07T07:54:51.229Z,41.03
2019-02-07T07:57:45.222Z,36.03
2019-02-07T08:00:32.809Z,36.47
2019-02-07T08:03:21.349Z,38.17
2019-02-07T08:06:24.493Z,34.87
2019-02-07T08:09:12.484Z,38.47
2019-02-07T08:12:00.533Z,40.83
2019-02-07T08:14:47.398Z,36.63
2019-02-07T08:17:47.854Z,36.10
2019-02-07T08:20:34.837Z,32.90
2019-02-07T08:23:25.454Z,38.93
2019-02-07T08:26:19.228Z,40.97
2019-02-07T08:29:10.045Z,37.30
2019-02-07T08:31:53.486Z,39.60
2019-02-07T08:34:44.901Z,32.27
2019-02-07T08:37:35.942Z,33.23
2019-02-07T08:40:24.598Z,40.67
2019-02-07T08:43:11.677Z,40.77
2019-02-07T08:46:05.543Z,33.80
2019-02-07T08:49:02.702Z,40.93
2019-02-07T08:51:50.854Z,41.43
2019-02-07T08:54:34.783Z,47.23
2019-02-07T08:57:21.528Z,41.37
2019-02-07T09:00:12.843Z,36.07
2019-02-07T09:03:11.206Z,35.53
2019-02-07T09:06:02.309Z,46.73
2019-02-07T09:08:49.014Z,44.07
2019-02-07T09:11:40.126Z,38.47
2019-02-07T09:14:37.595Z,36.13
2019-02-07T09:17:15.892Z,55.03
2019-02-07T09:20:15.929Z,34.90
2019-02-07T09:23:13.640Z,27.87
2019-02-07T09:26:07.483Z,46.50
2019-02-07T09:28:53.241Z,28.20
2019-02-07T09:31:33.598Z,37.13
2019-02-07T09:34:21.569Z,35.63
2019-02-07T09:37:12.570Z,37.10
2019-02-07T09:39:47.777Z,30.87
2019-02-07T09:42:27.623Z,30.07
2019-02-07T09:45:03.391Z,29.90
2019-02-07T09:48:06.861Z,34.23
2019-02-07T09:50:53.423Z,29.50
2019-02-07T09:53:34.164Z,35.03
2019-02-07T09:56:21.382Z,20.60
2019-02-07T09:59:12.282Z,32.57
2019-02-07T10:01:54.478Z,39.60
2019-02-07T10:04:42.817Z,33.30
2019-02-07T10:07:49.174Z,31.70
2019-02-07T10:10:29.240Z,28.00
2019-02-07T10:13:15.754Z,45.07
2019-02-07T10:16:04.193Z,31.23
2019-02-07T10:18:59.198Z,30.87
2019-02-07T10:21:59.022Z,43.27
2019-02-07T10:24:52.949Z,26.87
2019-02-07T10:27:41.002Z,27.20
2019-02-07T10:30:25.894Z,29.47
2019-02-07T10:33:12.866Z,32.60
2019-02-07T10:36:07.037Z,25.57
2019-02-07T10:38:44.141Z,29.07
2019-02-07T10:41:32.194Z,25.80
2019-02-07T10:44:26.428Z,27.23
2019-02-07T10:47:26.850Z,24.80
2019-02-07T10:50:12.201Z,27.57
2019-02-07T10:53:00.950Z,26.10
2019-02-07T10:55:42.139Z,29.07
2019-02-07T10:58:28.913Z,22.67
2019-02-07T11:01:16.469Z,23.93
2019-02-07T11:03:57.135Z,26.03
2019-02-07T11:06:44.364Z,23.03
2019-02-07T11:09:38.423Z,22.63
2019-02-07T11:12:20.546Z,23.00
2019-02-07T11:15:20.636Z,20.13
2019-02-07T11:18:07.321Z,18.93
2019-02-07T11:20:54.193Z,26.87
2019-02-07T11:23:43.537Z,25.97
2019-02-07T11:26:30.257Z,22.60
2019-02-07T11:29:11.830Z,20.67
2019-02-07T11:32:05.001Z,22.10
2019-02-07T11:34:57.253Z,24.53
2019-02-07T11:37:44.277Z,19.83
2019-02-07T11:40:37.103Z,21.03
2019-02-07T11:43:27.951Z,22.60
2019-02-07T11:46:13.485Z,23.10
2019-02-07T11:49:07.183Z,22.70
2019-02-07T11:52:01.126Z,18.53
2019-02-07T11:54:42.253Z,21.03
2019-02-07T11:57:30.698Z,17.50
2019-02-07T12:00:11.070Z,21.23
2019-02-07T12:03:17.341Z,20.30
2019-02-07T12:06:17.462Z,16.93
2019-02-07T12:08:59.484Z,17.57
2019-02-07T12:11:39.259Z,21.63
2019-02-07T12:14:36.445Z,25.27
2019-02-07T12:17:23.498Z,24.13
2019-02-07T12:20:08.369Z,24.93
2019-02-07T12:22:47.011Z,26.80
2019-02-07T12:25:47.136Z,26.93
2019-02-07T12:28:28.005Z,30.73
2019-02-07T12:31:19.169Z,22.47
2019-02-07T12:34:06.434Z,26.07
2019-02-07T12:36:41.352Z,25.27
2019-02-07T12:39:23.870Z,21.83
2019-02-07T12:42:20.786Z,25.43
2019-02-07T12:45:08.030Z,21.57
2019-02-07T12:48:00.478Z,20.87
2019-02-07T12:51:06.743Z,16.90
2019-02-07T12:53:53.934Z,17.80
2019-02-07T12:56:37.588Z,21.80
2019-02-07T12:59:26.567Z,19.47
2019-02-07T13:02:26.926Z,19.10
2019-02-07T13:05:13.798Z,21.97
2019-02-07T13:07:55.397Z,23.77
2019-02-07T13:10:43.441Z,17.97
2019-02-07T13:13:30.401Z,17.60
2019-02-07T13:16:17.691Z,19.20
2019-02-07T13:19:04.454Z,20.30
2019-02-07T13:22:01.794Z,22.97
2019-02-07T13:24:40.351Z,21.57
2019-02-07T13:27:27.316Z,24.40
2019-02-07T13:30:11.813Z,24.97
2019-02-07T13:32:58.666Z,20.87
2019-02-07T13:35:45.947Z,27.23
2019-02-07T13:38:43.300Z,18.50
2019-02-07T13:41:30.203Z,15.57
2019-02-07T13:44:27.481Z,19.83
2019-02-07T13:47:14.132Z,38.17
2019-02-07T13:50:00.173Z,35.27
2019-02-07T13:52:57.379Z,30.63
2019-02-07T13:56:03.802Z,23.33
2019-02-07T13:58:39.530Z,28.40
2019-02-07T14:01:27.642Z,23.67
2019-02-07T14:04:09.878Z,19.90
2019-02-07T14:07:07.146Z,48.20
2019-02-07T14:09:51.393Z,35.43
2019-02-07T14:12:42.082Z,37.17
2019-02-07T14:15:29.878Z,33.90
2019-02-07T14:18:17.853Z,25.87
2019-02-07T14:21:06.106Z,27.60
2019-02-07T14:23:52.934Z,24.83
2019-02-07T14:26:44.030Z,29.33
2019-02-07T14:29:44.214Z,33.37
2019-02-07T14:32:32.375Z,27.23
2019-02-07T14:35:20.019Z,28.23
2019-02-07T14:38:06.906Z,24.03
2019-02-07T14:40:42.582Z,25.30
2019-02-07T14:43:42.636Z,20.77
2019-02-07T14:46:30.646Z,23.40
2019-02-07T14:48:59.565Z,27.40
2019-02-07T14:51:28.525Z,22.13
2019-02-07T14:53:57.435Z,25.10
2019-02-07T14:56:26.495Z,23.13
2019-02-07T14:58:55.725Z,20.53
2019-02-07T15:01:24.785Z,25.70
2019-02-07T15:03:53.825Z,22.03
2019-02-07T15:06:22.814Z,24.67
2019-02-07T15:08:51.639Z,20.37
2019-02-07T15:11:20.872Z,19.30
2019-02-07T15:13:50.118Z,17.60
2019-02-07T15:16:19.094Z,18.10
2019-02-07T15:18:47.924Z,19.13
2019-02-07T15:21:16.892Z,25.97
2019-02-07T15:23:45.809Z,18.47
2019-02-07T15:26:14.721Z,17.07
2019-02-07T15:28:44.637Z,20.70
2019-02-07T15:31:13.546Z,25.17
2019-02-07T15:33:42.387Z,32.77
2019-02-07T15:36:11.645Z,25.90
2019-02-07T15:38:40.540Z,20.40
2019-02-07T15:41:09.525Z,14.00
2019-02-07T15:43:38.794Z,19.47
2019-02-07T15:46:09.065Z,25.10
2019-02-07T15:48:38.296Z,18.90
2019-02-07T15:51:07.660Z,18.43
2019-02-07T15:53:36.650Z,15.87
2019-02-07T15:56:05.816Z,26.10
2019-02-07T15:58:52.537Z,24.57
2019-02-07T16:01:35.026Z,23.13
2019-02-07T16:04:19.269Z,21.63
2019-02-07T16:06:48.454Z,25.43
2019-02-07T16:09:17.957Z,28.27
2019-02-07T16:11:46.980Z,18.60
2019-02-07T16:14:15.956Z,24.00
2019-02-07T16:16:44.871Z,20.20
2019-02-07T16:19:13.849Z,28.43
2019-02-07T16:21:43.085Z,24.50
2019-02-07T16:24:12.268Z,25.83
2019-02-07T16:26:41.250Z,27.30
2019-02-07T16:29:10.233Z,31.43
2019-02-07T16:31:39.200Z,36.23
2019-02-07T16:34:08.382Z,44.97
2019-02-07T16:36:37.689Z,30.87
2019-02-07T16:39:08.902Z,36.13
2019-02-07T16:41:37.894Z,30.00
2019-02-07T16:44:07.173Z,26.37
2019-02-07T16:46:36.158Z,32.07
2019-02-07T16:49:05.345Z,42.87
2019-02-07T16:51:34.638Z,31.40
2019-02-07T16:54:03.545Z,42.53
2019-02-07T16:56:32.445Z,31.83
2019-02-07T16:59:01.433Z,36.53
2019-02-07T17:01:30.413Z,32.90
2019-02-07T17:03:59.317Z,33.83
2019-02-07T17:06:28.302Z,40.90
2019-02-07T17:08:57.206Z,48.10
2019-02-07T17:11:26.481Z,50.13
2019-02-07T17:13:55.313Z,36.97
2019-02-07T17:16:24.557Z,45.53
2019-02-07T17:18:53.553Z,51.13
2019-02-07T17:21:22.734Z,40.03
2019-02-07T17:23:51.702Z,33.60
2019-02-07T17:26:20.686Z,39.30
2019-02-07T17:28:49.738Z,33.83
2019-02-07T17:31:18.654Z,32.07
2019-02-07T17:33:47.544Z,43.83
2019-02-07T17:36:16.917Z,31.00
2019-02-07T17:38:45.746Z,31.70
2019-02-07T17:41:14.757Z,32.23
2019-02-07T17:43:43.728Z,45.17
2019-02-07T17:46:12.977Z,34.50
2019-02-07T17:48:41.882Z,26.50
2019-02-07T17:51:10.794Z,39.87
2019-02-07T17:53:39.700Z,33.40
2019-02-07T17:56:08.673Z,36.40
2019-02-07T17:58:37.666Z,37.00
2019-02-07T18:01:09.576Z,41.83
2019-02-07T18:03:38.890Z,44.20
2019-02-07T18:06:09.174Z,42.40
2019-02-07T18:08:38.443Z,50.33
2019-02-07T18:11:07.732Z,35.63
2019-02-07T18:13:36.720Z,43.13
2019-02-07T18:16:06.073Z,43.73
2019-02-07T18:18:35.206Z,37.37
2019-02-07T18:21:04.496Z,29.23
2019-02-07T18:23:33.441Z,28.30
2019-02-07T18:26:02.590Z,25.60
2019-02-07T18:28:31.573Z,29.33
2019-02-07T18:31:00.483Z,33.67
2019-02-07T18:33:29.760Z,33.90
2019-02-07T18:35:59.080Z,35.33
2019-02-07T18:38:28.455Z,47.30
2019-02-07T18:40:57.354Z,43.73
2019-02-07T18:43:26.325Z,50.40
2019-02-07T18:45:55.309Z,33.10
2019-02-07T18:48:24.285Z,34.70
2019-02-07T18:50:53.263Z,21.50
2019-02-07T18:53:22.573Z,23.37
2019-02-07T18:55:51.541Z,31.10
2019-02-07T18:58:20.533Z,27.60
2019-02-07T19:00:49.752Z,31.20
2019-02-07T19:03:18.929Z,38.80
2019-02-07T19:05:47.956Z,48.67
2019-02-07T19:08:17.270Z,42.77
2019-02-07T19:10:46.617Z,44.73
2019-02-07T19:13:15.798Z,29.70
2019-02-07T19:15:50.577Z,34.57
2019-02-07T19:18:19.498Z,31.33
2019-02-07T19:20:48.719Z,33.40
2019-02-07T19:23:17.705Z,41.00
2019-02-07T19:25:46.989Z,35.87
2019-02-07T19:28:16.257Z,34.03
2019-02-07T19:30:45.230Z,26.77
2019-02-07T19:33:14.483Z,27.27
2019-02-07T19:35:43.390Z,27.60
2019-02-07T19:38:12.638Z,27.03
2019-02-07T19:40:41.918Z,37.23
2019-02-07T19:43:10.906Z,29.90
2019-02-07T19:45:39.717Z,38.87
2019-02-07T19:48:08.702Z,30.97
2019-02-07T19:50:37.597Z,39.23
2019-02-07T19:53:06.681Z,35.53
2019-02-07T19:55:36.042Z,44.37
2019-02-07T19:58:05.849Z,33.03
2019-02-07T20:00:35.350Z,31.30
2019-02-07T20:03:04.540Z,22.83
2019-02-07T20:05:33.513Z,31.27
2019-02-07T20:08:02.420Z,32.87
2019-02-07T20:10:31.394Z,30.70
2019-02-07T20:13:00.376Z,28.00
2019-02-07T20:15:31.621Z,23.87
2019-02-07T20:18:00.890Z,29.53
2019-02-07T20:20:30.474Z,34.37
2019-02-07T20:22:59.450Z,36.07
2019-02-07T20:25:28.436Z,29.53
2019-02-07T20:27:57.798Z,28.40
2019-02-07T20:30:32.024Z,27.47
2019-02-07T20:33:00.932Z,30.87
2019-02-07T20:35:30.262Z,32.03
2019-02-07T20:37:59.308Z,29.50
2019-02-07T20:40:28.834Z,27.40
2019-02-07T20:42:57.809Z,33.10
2019-02-07T20:45:27.078Z,33.60
2019-02-07T20:47:56.129Z,29.37
2019-02-07T20:50:25.985Z,33.73
2019-02-07T20:52:55.249Z,37.17
2019-02-07T20:55:24.249Z,33.23
2019-02-07T20:57:53.358Z,35.60
2019-02-07T21:00:31.189Z,33.23
2019-02-07T21:03:00.281Z,33.40
2019-02-07T21:05:30.917Z,35.07
2019-02-07T21:08:00.159Z,39.37
2019-02-07T21:10:30.440Z,38.63
2019-02-07T21:12:59.517Z,32.00
2019-02-07T21:15:28.886Z,34.67
2019-02-07T21:17:57.793Z,44.00
2019-02-07T21:20:28.299Z,38.33
2019-02-07T21:22:58.275Z,37.73
2019-02-07T21:25:32.893Z,33.13
2019-02-07T21:28:01.870Z,41.30
2019-02-07T21:30:31.767Z,34.40
2019-02-07T21:33:00.798Z,46.70
2019-02-07T21:35:30.485Z,37.20
2019-02-07T21:37:59.472Z,47.70
2019-02-07T21:40:29.757Z,36.60
2019-02-07T21:42:59.297Z,36.70
2019-02-07T21:45:28.314Z,37.93
2019-02-07T21:47:57.621Z,37.93
2019-02-07T21:50:27.737Z,31.97
2019-02-07T21:52:56.719Z,35.83
2019-02-07T21:55:27.673Z,40.13
2019-02-07T21:57:56.669Z,55.87
2019-02-07T22:00:36.516Z,37.30
2019-02-07T22:03:07.354Z,49.90
2019-02-07T22:05:36.335Z,56.85
2019-02-07T22:08:06.042Z,54.50
2019-02-07T22:10:35.297Z,49.80
2019-02-07T22:13:04.672Z,40.87
2019-02-07T22:15:33.942Z,49.47
2019-02-07T22:18:02.837Z,48.00
2019-02-07T22:20:31.996Z,45.73
2019-02-07T22:23:00.904Z,47.47
2019-02-07T22:25:30.205Z,46.50
2019-02-07T22:28:01.978Z,50.30
2019-02-07T22:30:33.413Z,44.40
2019-02-07T22:33:02.488Z,44.03
2019-02-07T22:35:31.788Z,39.43
2019-02-07T22:38:01.354Z,46.33
2019-02-07T22:40:30.661Z,50.77
2019-02-07T22:43:00.818Z,36.50
2019-02-07T22:45:30.277Z,44.33
2019-02-07T22:47:59.259Z,61.70
2019-02-07T22:50:29.148Z,43.90
2019-02-07T22:52:58.646Z,39.30
2019-02-07T22:55:27.658Z,38.63
2019-02-07T22:57:56.657Z,43.57
2019-02-07T23:01:06.141Z,49.60
2019-02-07T23:03:35.150Z,47.70
2019-02-07T23:06:23.193Z,51.33
2019-02-07T23:08:52.169Z,43.70
2019-02-07T23:11:21.443Z,42.87
2019-02-07T23:13:50.417Z,48.97
2019-02-07T23:16:19.714Z,38.30
2019-02-07T23:18:48.873Z,46.30
2019-02-07T23:21:18.301Z,45.73
2019-02-07T23:23:47.589Z,46.43
2019-02-07T23:26:16.509Z,41.10
2019-02-07T23:28:45.414Z,38.87
2019-02-07T23:31:14.414Z,51.50
2019-02-07T23:33:43.921Z,36.00
2019-02-07T23:36:12.919Z,44.40
2019-02-07T23:38:41.744Z,36.20
2019-02-07T23:41:11.117Z,45.00
2019-02-07T23:43:45.978Z,39.77
2019-02-07T23:46:11.302Z,34.97
2019-02-07T23:48:40.319Z,32.90
2019-02-07T23:51:09.293Z,42.70
2019-02-07T23:53:38.273Z,40.97
2019-02-07T23:56:07.773Z,38.60
2019-02-07T23:58:37.018Z,38.37
